sensor_id;sensor_type;location;lat;lon;timestamp;pressure;altitude;pressure_sealevel;temperature;humidity
35910;BME280;22004;49.120;-0.200;2023-07-02T00:00:00;101152.88;;;16.59;76.34
35910;BME280;22004;49.120;-0.200;2023-07-02T00:02:26;101165.16;;;16.94;75.33
35910;BME280;22004;49.120;-0.200;2023-07-02T00:04:51;101170.41;;;16.63;75.99
35910;BME280;22004;49.120;-0.200;2023-07-02T00:07:16;101168.72;;;16.88;76.68
35910;BME280;22004;49.120;-0.200;2023-07-02T00:09:42;101162.25;;;16.49;76.73
35910;BME280;22004;49.120;-0.200;2023-07-02T00:12:07;101162.47;;;16.68;77.27
35910;BME280;22004;49.120;-0.200;2023-07-02T00:14:33;101165.16;;;17.01;75.93
35910;BME280;22004;49.120;-0.200;2023-07-02T00:16:59;101164.72;;;17.04;76.13
35910;BME280;22004;49.120;-0.200;2023-07-02T00:19:24;101160.56;;;17.01;75.48
35910;BME280;22004;49.120;-0.200;2023-07-02T00:21:50;101154.69;;;17.04;75.69
35910;BME280;22004;49.120;-0.200;2023-07-02T00:24:15;101166.44;;;16.78;77.14
35910;BME280;22004;49.120;-0.200;2023-07-02T00:26:41;101160.13;;;16.98;75.65
35910;BME280;22004;49.120;-0.200;2023-07-02T00:29:08;101151.63;;;16.81;75.88
35910;BME280;22004;49.120;-0.200;2023-07-02T00:31:34;101152.41;;;17.01;75.57
35910;BME280;22004;49.120;-0.200;2023-07-02T00:34:00;101162.25;;;16.96;76.51
35910;BME280;22004;49.120;-0.200;2023-07-02T00:36:26;101154.75;;;16.85;75.91
35910;BME280;22004;49.120;-0.200;2023-07-02T00:38:52;101160.38;;;16.70;77.22
35910;BME280;22004;49.120;-0.200;2023-07-02T00:41:17;101163.28;;;17.01;75.60
35910;BME280;22004;49.120;-0.200;2023-07-02T00:43:43;101151.16;;;17.04;75.95
35910;BME280;22004;49.120;-0.200;2023-07-02T00:46:15;101157.81;;;17.08;76.02
35910;BME280;22004;49.120;-0.200;2023-07-02T00:48:54;101151.59;;;17.01;76.22
35910;BME280;22004;49.120;-0.200;2023-07-02T00:51:22;101144.75;;;16.59;76.40
35910;BME280;22004;49.120;-0.200;2023-07-02T00:53:49;101147.22;;;16.93;76.34
35910;BME280;22004;49.120;-0.200;2023-07-02T00:56:15;101145.16;;;16.82;76.61
35910;BME280;22004;49.120;-0.200;2023-07-02T00:58:43;101150.56;;;16.55;76.67
35910;BME280;22004;49.120;-0.200;2023-07-02T01:06:19;101146.00;;;16.49;76.29
35910;BME280;22004;49.120;-0.200;2023-07-02T01:08:50;101154.97;;;16.83;76.45
35910;BME280;22004;49.120;-0.200;2023-07-02T01:11:15;101149.53;;;16.03;78.75
35910;BME280;22004;49.120;-0.200;2023-07-02T01:13:41;101160.59;;;16.48;78.77
35910;BME280;22004;49.120;-0.200;2023-07-02T01:16:09;101164.13;;;16.89;76.79
35910;BME280;22004;49.120;-0.200;2023-07-02T01:18:35;101156.00;;;16.82;76.05
35910;BME280;22004;49.120;-0.200;2023-07-02T01:21:04;101159.97;;;16.86;76.11
35910;BME280;22004;49.120;-0.200;2023-07-02T01:23:32;101167.28;;;16.79;75.94
35910;BME280;22004;49.120;-0.200;2023-07-02T01:25:57;101165.78;;;16.70;77.10
35910;BME280;22004;49.120;-0.200;2023-07-02T01:28:25;101164.53;;;16.92;76.34
35910;BME280;22004;49.120;-0.200;2023-07-02T01:30:50;101162.25;;;16.83;75.77
35910;BME280;22004;49.120;-0.200;2023-07-02T01:33:15;101159.16;;;16.52;76.98
35910;BME280;22004;49.120;-0.200;2023-07-02T01:35:41;101164.97;;;16.49;78.24
35910;BME280;22004;49.120;-0.200;2023-07-02T01:38:06;101167.72;;;16.36;77.72
35910;BME280;22004;49.120;-0.200;2023-07-02T01:40:31;101170.63;;;16.81;77.36
35910;BME280;22004;49.120;-0.200;2023-07-02T01:42:57;101175.00;;;16.82;76.90
35910;BME280;22004;49.120;-0.200;2023-07-02T01:45:22;101167.47;;;16.58;77.71
35910;BME280;22004;49.120;-0.200;2023-07-02T01:47:47;101172.66;;;16.86;76.86
35910;BME280;22004;49.120;-0.200;2023-07-02T01:50:13;101169.13;;;16.45;77.83
35910;BME280;22004;49.120;-0.200;2023-07-02T01:52:38;101164.75;;;16.44;77.46
35910;BME280;22004;49.120;-0.200;2023-07-02T01:55:04;101179.56;;;16.68;77.32
35910;BME280;22004;49.120;-0.200;2023-07-02T01:57:29;101172.91;;;16.58;76.82
35910;BME280;22004;49.120;-0.200;2023-07-02T01:59:56;101172.69;;;16.46;77.17
35910;BME280;22004;49.120;-0.200;2023-07-02T02:02:21;101172.06;;;16.57;76.71
35910;BME280;22004;49.120;-0.200;2023-07-02T02:04:46;101169.34;;;16.50;77.99
35910;BME280;22004;49.120;-0.200;2023-07-02T02:07:11;101170.38;;;16.69;77.04
35910;BME280;22004;49.120;-0.200;2023-07-02T02:09:37;101172.28;;;16.22;76.51
35910;BME280;22004;49.120;-0.200;2023-07-02T02:12:02;101171.22;;;16.70;77.16
35910;BME280;22004;49.120;-0.200;2023-07-02T02:14:28;101169.38;;;16.57;77.32
35910;BME280;22004;49.120;-0.200;2023-07-02T02:16:53;101161.03;;;16.32;77.72
35910;BME280;22004;49.120;-0.200;2023-07-02T02:19:18;101164.34;;;16.21;76.46
35910;BME280;22004;49.120;-0.200;2023-07-02T02:21:44;101160.41;;;16.37;77.29
35910;BME280;22004;49.120;-0.200;2023-07-02T02:24:09;101164.13;;;16.62;77.50
35910;BME280;22004;49.120;-0.200;2023-07-02T02:26:35;101169.78;;;16.47;78.04
35910;BME280;22004;49.120;-0.200;2023-07-02T02:29:01;101175.19;;;16.67;76.93
35910;BME280;22004;49.120;-0.200;2023-07-02T02:31:26;101168.72;;;16.55;77.63
35910;BME280;22004;49.120;-0.200;2023-07-02T02:33:53;101166.59;;;15.91;78.14
35910;BME280;22004;49.120;-0.200;2023-07-02T02:36:18;101168.94;;;16.07;78.33
35910;BME280;22004;49.120;-0.200;2023-07-02T02:38:44;101172.69;;;16.19;78.38
35910;BME280;22004;49.120;-0.200;2023-07-02T02:41:09;101169.13;;;16.19;78.87
35910;BME280;22004;49.120;-0.200;2023-07-02T02:43:34;101173.94;;;16.43;77.12
35910;BME280;22004;49.120;-0.200;2023-07-02T02:46:00;101178.75;;;16.21;77.77
35910;BME280;22004;49.120;-0.200;2023-07-02T02:48:25;101184.56;;;16.12;76.83
35910;BME280;22004;49.120;-0.200;2023-07-02T02:50:51;101180.81;;;16.26;79.14
35910;BME280;22004;49.120;-0.200;2023-07-02T02:53:16;101194.78;;;16.29;77.53
35910;BME280;22004;49.120;-0.200;2023-07-02T02:55:41;101193.94;;;16.29;78.08
35910;BME280;22004;49.120;-0.200;2023-07-02T02:58:07;101192.28;;;16.35;77.39
35910;BME280;22004;49.120;-0.200;2023-07-02T03:00:32;101185.41;;;16.59;77.69
35910;BME280;22004;49.120;-0.200;2023-07-02T03:03:00;101181.44;;;16.48;76.95
35910;BME280;22004;49.120;-0.200;2023-07-02T03:05:26;101185.59;;;16.31;78.45
35910;BME280;22004;49.120;-0.200;2023-07-02T03:07:51;101186.44;;;16.64;77.33
35910;BME280;22004;49.120;-0.200;2023-07-02T03:10:17;101185.59;;;16.31;78.10
35910;BME280;22004;49.120;-0.200;2023-07-02T03:12:43;101189.78;;;16.33;78.26
35910;BME280;22004;49.120;-0.200;2023-07-02T03:15:08;101180.22;;;16.37;77.60
35910;BME280;22004;49.120;-0.200;2023-07-02T03:17:34;101176.84;;;16.28;78.30
35910;BME280;22004;49.120;-0.200;2023-07-02T03:20:00;101183.91;;;16.10;78.23
35910;BME280;22004;49.120;-0.200;2023-07-02T03:22:25;101190.22;;;16.37;77.51
35910;BME280;22004;49.120;-0.200;2023-07-02T03:24:50;101192.50;;;16.26;78.35
35910;BME280;22004;49.120;-0.200;2023-07-02T03:27:16;101184.38;;;16.46;77.64
35910;BME280;22004;49.120;-0.200;2023-07-02T03:29:41;101188.31;;;16.64;77.25
35910;BME280;22004;49.120;-0.200;2023-07-02T03:32:07;101187.50;;;16.63;76.91
35910;BME280;22004;49.120;-0.200;2023-07-02T03:34:32;101185.22;;;16.47;77.16
35910;BME280;22004;49.120;-0.200;2023-07-02T03:36:57;101196.66;;;16.36;77.36
35910;BME280;22004;49.120;-0.200;2023-07-02T03:39:23;101189.97;;;16.25;77.29
35910;BME280;22004;49.120;-0.200;2023-07-02T03:41:48;101200.63;;;16.53;77.60
35910;BME280;22004;49.120;-0.200;2023-07-02T03:44:13;101199.16;;;16.24;77.91
35910;BME280;22004;49.120;-0.200;2023-07-02T03:46:39;101198.75;;;16.60;77.36
35910;BME280;22004;49.120;-0.200;2023-07-02T03:49:04;101192.06;;;16.49;76.93
35910;BME280;22004;49.120;-0.200;2023-07-02T03:51:30;101199.81;;;16.52;77.47
35910;BME280;22004;49.120;-0.200;2023-07-02T03:53:55;101202.72;;;16.51;77.69
35910;BME280;22004;49.120;-0.200;2023-07-02T03:56:21;101192.50;;;16.46;77.19
35910;BME280;22004;49.120;-0.200;2023-07-02T03:58:46;101197.91;;;16.60;77.03
35910;BME280;22004;49.120;-0.200;2023-07-02T04:01:12;101189.59;;;16.41;77.72
35910;BME280;22004;49.120;-0.200;2023-07-02T04:03:37;101194.34;;;16.46;77.41
35910;BME280;22004;49.120;-0.200;2023-07-02T04:06:03;101198.75;;;16.40;77.38
35910;BME280;22004;49.120;-0.200;2023-07-02T04:08:31;101199.38;;;16.55;77.37
35910;BME280;22004;49.120;-0.200;2023-07-02T04:10:56;101198.75;;;16.53;78.01
35910;BME280;22004;49.120;-0.200;2023-07-02T04:13:22;101195.59;;;16.30;76.75
35910;BME280;22004;49.120;-0.200;2023-07-02T04:15:47;101189.59;;;16.48;77.32
35910;BME280;22004;49.120;-0.200;2023-07-02T04:18:12;101202.94;;;16.43;77.33
35910;BME280;22004;49.120;-0.200;2023-07-02T04:20:38;101196.84;;;16.21;77.73
35910;BME280;22004;49.120;-0.200;2023-07-02T04:23:04;101202.72;;;16.38;nan
35910;BME280;22004;49.120;-0.200;2023-07-02T04:25:30;101205.00;;;16.34;78.45
35910;BME280;22004;49.120;-0.200;2023-07-02T04:27:55;101206.13;;;15.79;77.29
35910;BME280;22004;49.120;-0.200;2023-07-02T04:30:22;101215.41;;;16.31;78.00
35910;BME280;22004;49.120;-0.200;2023-07-02T04:32:47;101198.03;;;15.85;77.27
35910;BME280;22004;49.120;-0.200;2023-07-02T04:35:12;101213.53;;;16.11;78.44
35910;BME280;22004;49.120;-0.200;2023-07-02T04:37:38;101208.28;;;16.10;78.74
35910;BME280;22004;49.120;-0.200;2023-07-02T04:40:05;101214.13;;;16.07;78.83
35910;BME280;22004;49.120;-0.200;2023-07-02T04:42:40;101216.75;;;15.80;78.41
35910;BME280;22004;49.120;-0.200;2023-07-02T04:45:07;101222.72;;;16.43;77.34
35910;BME280;22004;49.120;-0.200;2023-07-02T04:47:34;101228.34;;;16.68;76.92
35910;BME280;22004;49.120;-0.200;2023-07-02T04:50:00;101226.88;;;16.46;77.84
35910;BME280;22004;49.120;-0.200;2023-07-02T04:52:26;101230.66;;;16.51;76.91
35910;BME280;22004;49.120;-0.200;2023-07-02T04:54:51;101221.22;;;16.21;76.43
35910;BME280;22004;49.120;-0.200;2023-07-02T04:57:17;101224.81;;;16.48;77.64
35910;BME280;22004;49.120;-0.200;2023-07-02T04:59:42;101224.81;;;16.48;77.09
35910;BME280;22004;49.120;-0.200;2023-07-02T05:02:08;101228.09;;;16.10;75.92
35910;BME280;22004;49.120;-0.200;2023-07-02T05:04:33;101230.56;;;15.98;77.53
35910;BME280;22004;49.120;-0.200;2023-07-02T05:07:02;101240.66;;;16.44;77.69
35910;BME280;22004;49.120;-0.200;2023-07-02T05:09:28;101234.31;;;15.56;77.92
35910;BME280;22004;49.120;-0.200;2023-07-02T05:11:53;101243.13;;;16.46;77.46
35910;BME280;22004;49.120;-0.200;2023-07-02T05:14:18;101245.84;;;16.39;77.99
35910;BME280;22004;49.120;-0.200;2023-07-02T05:16:44;101234.38;;;16.31;77.05
35910;BME280;22004;49.120;-0.200;2023-07-02T05:19:09;101230.78;;;15.97;76.93
35910;BME280;22004;49.120;-0.200;2023-07-02T05:21:35;101231.97;;;15.81;78.43
35910;BME280;22004;49.120;-0.200;2023-07-02T05:24:00;101247.13;;;16.57;77.50
35910;BME280;22004;49.120;-0.200;2023-07-02T05:26:25;101247.81;;;15.84;76.42
35910;BME280;22004;49.120;-0.200;2023-07-02T05:28:52;101247.13;;;16.63;76.83
35910;BME280;22004;49.120;-0.200;2023-07-02T05:31:17;101251.06;;;16.27;76.26
35910;BME280;22004;49.120;-0.200;2023-07-02T05:33:42;101253.00;;;15.86;77.68
35910;BME280;22004;49.120;-0.200;2023-07-02T05:36:08;101252.53;;;16.43;77.54
35910;BME280;22004;49.120;-0.200;2023-07-02T05:38:33;101248.59;;;16.59;76.64
35910;BME280;22004;49.120;-0.200;2023-07-02T05:40:58;101248.16;;;16.49;77.15
35910;BME280;22004;49.120;-0.200;2023-07-02T05:43:24;101253.69;;;16.01;77.92
35910;BME280;22004;49.120;-0.200;2023-07-02T05:45:50;101254.41;;;16.49;77.79
35910;BME280;22004;49.120;-0.200;2023-07-02T05:48:17;101263.81;;;16.47;76.57
35910;BME280;22004;49.120;-0.200;2023-07-02T05:50:42;101263.22;;;16.85;76.38
35910;BME280;22004;49.120;-0.200;2023-07-02T05:53:08;101265.69;;;17.19;74.52
35910;BME280;22004;49.120;-0.200;2023-07-02T05:55:34;101266.09;;;17.23;75.39
35910;BME280;22004;49.120;-0.200;2023-07-02T05:58:00;101266.94;;;17.23;75.08
35910;BME280;22004;49.120;-0.200;2023-07-02T06:00:28;101265.50;;;17.01;75.79
35910;BME280;22004;49.120;-0.200;2023-07-02T06:02:53;101265.28;;;17.09;75.72
35910;BME280;22004;49.120;-0.200;2023-07-02T06:05:18;101270.06;;;17.27;75.25
35910;BME280;22004;49.120;-0.200;2023-07-02T06:07:44;101272.19;;;16.92;76.39
35910;BME280;22004;49.120;-0.200;2023-07-02T06:10:09;101272.97;;;17.25;75.36
35910;BME280;22004;49.120;-0.200;2023-07-02T06:12:35;101272.34;;;17.30;74.86
35910;BME280;22004;49.120;-0.200;2023-07-02T06:15:00;101277.34;;;16.60;76.21
35910;BME280;22004;49.120;-0.200;2023-07-02T06:17:25;101280.47;;;17.30;75.34
35910;BME280;22004;49.120;-0.200;2023-07-02T06:19:51;101297.53;;;17.57;74.29
35910;BME280;22004;49.120;-0.200;2023-07-02T06:22:16;101295.69;;;17.44;75.10
35910;BME280;22004;49.120;-0.200;2023-07-02T06:24:42;101292.81;;;16.79;76.84
35910;BME280;22004;49.120;-0.200;2023-07-02T06:27:07;101291.56;;;17.28;76.09
35910;BME280;22004;49.120;-0.200;2023-07-02T06:29:32;101298.00;;;17.34;75.23
35910;BME280;22004;49.120;-0.200;2023-07-02T06:31:59;101301.38;;;17.23;75.72
35910;BME280;22004;49.120;-0.200;2023-07-02T06:34:24;101308.44;;;17.44;75.64
35910;BME280;22004;49.120;-0.200;2023-07-02T06:36:50;101301.56;;;17.28;76.27
35910;BME280;22004;49.120;-0.200;2023-07-02T06:39:15;101305.28;;;17.53;75.33
35910;BME280;22004;49.120;-0.200;2023-07-02T06:41:40;101314.66;;;17.57;74.96
35910;BME280;22004;49.120;-0.200;2023-07-02T06:44:06;101307.50;;;17.70;74.62
35910;BME280;22004;49.120;-0.200;2023-07-02T06:46:32;101308.63;;;17.55;75.08
35910;BME280;22004;49.120;-0.200;2023-07-02T06:48:57;101314.44;;;17.66;75.25
35910;BME280;22004;49.120;-0.200;2023-07-02T06:51:22;101308.75;;;17.87;73.74
35910;BME280;22004;49.120;-0.200;2023-07-02T06:53:50;101316.09;;;17.60;75.11
35910;BME280;22004;49.120;-0.200;2023-07-02T06:56:15;101322.09;;;17.95;73.59
35910;BME280;22004;49.120;-0.200;2023-07-02T06:58:42;101321.66;;;17.98;72.93
35910;BME280;22004;49.120;-0.200;2023-07-02T07:01:07;101321.25;;;18.01;72.46
35910;BME280;22004;49.120;-0.200;2023-07-02T07:03:33;101326.53;;;17.83;73.07
35910;BME280;22004;49.120;-0.200;2023-07-02T07:05:59;101317.97;;;17.86;73.37
35910;BME280;22004;49.120;-0.200;2023-07-02T07:08:24;101327.91;;;18.05;72.80
35910;BME280;22004;49.120;-0.200;2023-07-02T07:10:50;101330.00;;;18.10;72.10
35910;BME280;22004;49.120;-0.200;2023-07-02T07:13:15;101339.34;;;18.21;71.17
35910;BME280;22004;49.120;-0.200;2023-07-02T07:15:41;101343.16;;;18.51;70.59
35910;BME280;22004;49.120;-0.200;2023-07-02T07:18:08;101338.19;;;18.42;69.85
35910;BME280;22004;49.120;-0.200;2023-07-02T07:20:33;101325.25;;;18.37;67.18
35910;BME280;22004;49.120;-0.200;2023-07-02T07:22:59;101323.88;;;18.53;68.23
35910;BME280;22004;49.120;-0.200;2023-07-02T07:25:24;101332.22;;;18.58;68.64
35910;BME280;22004;49.120;-0.200;2023-07-02T07:27:51;101328.81;;;18.69;67.83
35910;BME280;22004;49.120;-0.200;2023-07-02T07:30:16;101336.47;;;18.47;67.83
35910;BME280;22004;49.120;-0.200;2023-07-02T07:32:48;101329.50;;;18.58;67.60
35910;BME280;22004;49.120;-0.200;2023-07-02T07:35:13;101331.50;;;18.76;65.78
35910;BME280;22004;49.120;-0.200;2023-07-02T07:37:38;101323.69;;;18.86;66.97
35910;BME280;22004;49.120;-0.200;2023-07-02T07:40:04;101334.81;;;19.09;66.24
35910;BME280;22004;49.120;-0.200;2023-07-02T07:42:31;101334.94;;;18.58;64.92
35910;BME280;22004;49.120;-0.200;2023-07-02T07:44:56;101337.00;;;18.63;66.18
35910;BME280;22004;49.120;-0.200;2023-07-02T07:47:22;101335.13;;;18.25;66.39
35910;BME280;22004;49.120;-0.200;2023-07-02T07:49:47;101334.88;;;18.33;66.07
35910;BME280;22004;49.120;-0.200;2023-07-02T07:52:13;101341.13;;;18.33;65.70
35910;BME280;22004;49.120;-0.200;2023-07-02T07:54:38;101340.78;;;18.23;64.07
35910;BME280;22004;49.120;-0.200;2023-07-02T07:57:04;101341.50;;;18.44;64.84
35910;BME280;22004;49.120;-0.200;2023-07-02T07:59:30;101350.03;;;18.16;60.56
35910;BME280;22004;49.120;-0.200;2023-07-02T08:01:55;101341.69;;;18.49;65.62
35910;BME280;22004;49.120;-0.200;2023-07-02T08:04:20;101342.88;;;18.59;64.91
35910;BME280;22004;49.120;-0.200;2023-07-02T08:06:46;101341.00;;;18.60;64.77
35910;BME280;22004;49.120;-0.200;2023-07-02T08:09:11;101338.84;;;19.00;62.14
35910;BME280;22004;49.120;-0.200;2023-07-02T08:11:36;101334.78;;;18.84;62.87
35910;BME280;22004;49.120;-0.200;2023-07-02T08:14:02;101349.69;;;18.37;62.11
35910;BME280;22004;49.120;-0.200;2023-07-02T08:16:27;101347.22;;;18.36;63.92
35910;BME280;22004;49.120;-0.200;2023-07-02T08:18:52;101348.09;;;18.23;62.30
35910;BME280;22004;49.120;-0.200;2023-07-02T08:21:17;101350.72;;;18.43;64.27
35910;BME280;22004;49.120;-0.200;2023-07-02T08:23:43;101355.69;;;18.52;60.92
35910;BME280;22004;49.120;-0.200;2023-07-02T08:26:09;101355.28;;;18.49;62.22
35910;BME280;22004;49.120;-0.200;2023-07-02T08:28:36;101356.19;;;18.36;60.37
35910;BME280;22004;49.120;-0.200;2023-07-02T08:31:01;101351.53;;;18.43;62.90
35910;BME280;22004;49.120;-0.200;2023-07-02T08:33:26;101354.13;;;18.25;60.73
35910;BME280;22004;49.120;-0.200;2023-07-02T08:35:52;101356.09;;;18.04;61.67
35910;BME280;22004;49.120;-0.200;2023-07-02T08:38:17;101364.59;;;18.28;60.12
35910;BME280;22004;49.120;-0.200;2023-07-02T08:40:42;101365.78;;;18.39;60.89
35910;BME280;22004;49.120;-0.200;2023-07-02T08:43:08;101372.47;;;18.43;59.11
35910;BME280;22004;49.120;-0.200;2023-07-02T08:45:33;101375.41;;;18.41;60.06
35910;BME280;22004;49.120;-0.200;2023-07-02T08:47:59;101373.94;;;18.45;55.09
35910;BME280;22004;49.120;-0.200;2023-07-02T08:50:24;101369.84;;;18.61;53.40
35910;BME280;22004;49.120;-0.200;2023-07-02T08:52:50;101375.56;;;18.84;59.19
35910;BME280;22004;49.120;-0.200;2023-07-02T08:55:17;101372.53;;;19.24;57.08
35910;BME280;22004;49.120;-0.200;2023-07-02T08:57:49;101369.06;;;18.92;55.61
35910;BME280;22004;49.120;-0.200;2023-07-02T09:00:15;101369.66;;;18.94;57.43
35910;BME280;22004;49.120;-0.200;2023-07-02T09:02:41;101370.38;;;19.08;56.43
35910;BME280;22004;49.120;-0.200;2023-07-02T09:05:06;101384.44;;;19.55;55.01
35910;BME280;22004;49.120;-0.200;2023-07-02T09:07:32;101369.31;;;19.34;55.95
35910;BME280;22004;49.120;-0.200;2023-07-02T09:10:08;101367.25;;;19.11;52.70
35910;BME280;22004;49.120;-0.200;2023-07-02T09:12:33;101366.00;;;19.32;55.47
35910;BME280;22004;49.120;-0.200;2023-07-02T09:15:04;101366.06;;;19.00;49.47
35910;BME280;22004;49.120;-0.200;2023-07-02T09:17:33;101362.28;;;19.26;53.63
35910;BME280;22004;49.120;-0.200;2023-07-02T09:19:59;101367.25;;;19.11;55.01
35910;BME280;22004;49.120;-0.200;2023-07-02T09:22:29;101360.00;;;19.23;53.37
35910;BME280;22004;49.120;-0.200;2023-07-02T09:25:00;101353.69;;;19.48;49.82
35910;BME280;22004;49.120;-0.200;2023-07-02T09:27:38;101360.13;;;19.35;53.15
35910;BME280;22004;49.120;-0.200;2023-07-02T09:30:14;101355.88;;;19.64;54.34
35910;BME280;22004;49.120;-0.200;2023-07-02T09:32:43;101353.13;;;19.64;54.38
35910;BME280;22004;49.120;-0.200;2023-07-02T09:35:09;101363.59;;;19.67;54.47
35910;BME280;22004;49.120;-0.200;2023-07-02T09:37:35;101361.84;;;19.73;54.22
35910;BME280;22004;49.120;-0.200;2023-07-02T09:40:01;101353.91;;;20.56;50.62
35910;BME280;22004;49.120;-0.200;2023-07-02T09:42:27;101363.31;;;20.42;52.62
35910;BME280;22004;49.120;-0.200;2023-07-02T09:44:55;101356.31;;;20.16;52.58
35910;BME280;22004;49.120;-0.200;2023-07-02T09:47:21;101354.31;;;19.75;53.76
35910;BME280;22004;49.120;-0.200;2023-07-02T09:50:04;101352.16;;;20.62;52.15
35910;BME280;22004;49.120;-0.200;2023-07-02T09:52:34;101361.41;;;20.43;50.88
35910;BME280;22004;49.120;-0.200;2023-07-02T09:55:00;101352.88;;;20.39;51.14
35910;BME280;22004;49.120;-0.200;2023-07-02T09:57:26;101348.44;;;20.98;51.32
35910;BME280;22004;49.120;-0.200;2023-07-02T09:59:53;101355.44;;;20.52;50.31
35910;BME280;22004;49.120;-0.200;2023-07-02T10:02:18;101349.88;;;20.89;52.60
35910;BME280;22004;49.120;-0.200;2023-07-02T10:04:45;101355.63;;;20.39;53.14
35910;BME280;22004;49.120;-0.200;2023-07-02T10:07:12;101357.47;;;20.38;50.39
35910;BME280;22004;49.120;-0.200;2023-07-02T10:09:45;101355.00;;;20.55;52.60
35910;BME280;22004;49.120;-0.200;2023-07-02T10:12:45;101365.16;;;20.48;52.10
35910;BME280;22004;49.120;-0.200;2023-07-02T10:15:11;101353.94;;;21.22;48.69
35910;BME280;22004;49.120;-0.200;2023-07-02T10:17:36;101358.13;;;21.59;48.76
35910;BME280;22004;49.120;-0.200;2023-07-02T10:20:06;101349.06;;;21.94;48.83
35910;BME280;22004;49.120;-0.200;2023-07-02T10:22:47;101343.16;;;20.61;52.46
35910;BME280;22004;49.120;-0.200;2023-07-02T10:25:24;101347.78;;;20.43;50.97
35910;BME280;22004;49.120;-0.200;2023-07-02T10:27:50;101351.66;;;20.05;52.14
35910;BME280;22004;49.120;-0.200;2023-07-02T10:30:15;101351.97;;;20.27;53.07
35910;BME280;22004;49.120;-0.200;2023-07-02T10:32:41;101347.75;;;20.12;52.61
35910;BME280;22004;49.120;-0.200;2023-07-02T10:35:16;101353.16;;;20.79;52.35
35910;BME280;22004;49.120;-0.200;2023-07-02T10:37:42;101351.97;;;20.75;50.84
35910;BME280;22004;49.120;-0.200;2023-07-02T10:40:09;101349.50;;;20.97;50.94
35910;BME280;22004;49.120;-0.200;2023-07-02T10:42:51;101348.44;;;20.98;52.55
35910;BME280;22004;49.120;-0.200;2023-07-02T10:45:17;101348.72;;;21.20;46.54
35910;BME280;22004;49.120;-0.200;2023-07-02T10:47:43;101346.13;;;21.25;51.15
35910;BME280;22004;49.120;-0.200;2023-07-02T10:50:19;101337.53;;;20.98;52.50
35910;BME280;22004;49.120;-0.200;2023-07-02T10:52:45;101335.97;;;20.90;51.79
35910;BME280;22004;49.120;-0.200;2023-07-02T10:55:16;101352.38;;;21.02;52.05
35910;BME280;22004;49.120;-0.200;2023-07-02T10:57:42;101347.00;;;20.84;51.29
35910;BME280;22004;49.120;-0.200;2023-07-02T11:00:08;101344.19;;;20.49;52.75
35910;BME280;22004;49.120;-0.200;2023-07-02T11:02:37;101343.78;;;20.75;52.22
35910;BME280;22004;49.120;-0.200;2023-07-02T11:05:04;101329.94;;;20.47;52.86
35910;BME280;22004;49.120;-0.200;2023-07-02T11:07:31;101341.50;;;20.42;53.22
35910;BME280;22004;49.120;-0.200;2023-07-02T11:09:57;101341.34;;;21.67;51.93
35910;BME280;22004;49.120;-0.200;2023-07-02T11:12:31;101335.44;;;21.71;50.44
35910;BME280;22004;49.120;-0.200;2023-07-02T11:15:10;101340.25;;;22.89;48.69
35910;BME280;22004;49.120;-0.200;2023-07-02T11:17:35;101339.88;;;22.00;50.15
35910;BME280;22004;49.120;-0.200;2023-07-02T11:20:01;101338.91;;;21.31;51.72
35910;BME280;22004;49.120;-0.200;2023-07-02T11:22:33;101335.78;;;21.62;51.70
35910;BME280;22004;49.120;-0.200;2023-07-02T11:25:19;101340.69;;;22.86;49.50
35910;BME280;22004;49.120;-0.200;2023-07-02T11:27:47;101329.09;;;21.93;48.02
35910;BME280;22004;49.120;-0.200;2023-07-02T11:30:13;101330.94;;;21.41;52.90
35910;BME280;22004;49.120;-0.200;2023-07-02T11:32:55;101329.66;;;21.44;51.20
35910;BME280;22004;49.120;-0.200;2023-07-02T11:35:21;101333.69;;;22.62;49.55
35910;BME280;22004;49.120;-0.200;2023-07-02T11:37:48;101322.69;;;22.28;50.59
35910;BME280;22004;49.120;-0.200;2023-07-02T11:40:18;101325.56;;;22.50;50.26
35910;BME280;22004;49.120;-0.200;2023-07-02T11:42:44;101326.00;;;22.30;51.12
35910;BME280;22004;49.120;-0.200;2023-07-02T11:45:10;101327.34;;;21.05;53.33
35910;BME280;22004;49.120;-0.200;2023-07-02T11:47:35;101330.25;;;20.69;53.75
35910;BME280;22004;49.120;-0.200;2023-07-02T11:50:00;101329.69;;;21.02;54.26
35910;BME280;22004;49.120;-0.200;2023-07-02T11:52:26;101339.84;;;22.24;51.37
35910;BME280;22004;49.120;-0.200;2023-07-02T11:54:51;101337.53;;;22.61;49.60
35910;BME280;22004;49.120;-0.200;2023-07-02T11:57:17;101331.31;;;22.37;49.96
35910;BME280;22004;49.120;-0.200;2023-07-02T11:59:42;101323.69;;;21.47;51.31
35910;BME280;22004;49.120;-0.200;2023-07-02T12:02:08;101323.09;;;21.56;52.73
35910;BME280;22004;49.120;-0.200;2023-07-02T12:04:33;101330.31;;;21.04;53.93
35910;BME280;22004;49.120;-0.200;2023-07-02T12:06:59;101327.59;;;21.15;53.59
35910;BME280;22004;49.120;-0.200;2023-07-02T12:09:26;101324.75;;;21.46;52.30
35910;BME280;22004;49.120;-0.200;2023-07-02T12:11:52;101333.38;;;21.07;52.37
35910;BME280;22004;49.120;-0.200;2023-07-02T12:14:18;101328.44;;;20.62;54.28
35910;BME280;22004;49.120;-0.200;2023-07-02T12:16:43;101328.53;;;20.56;54.25
35910;BME280;22004;49.120;-0.200;2023-07-02T12:19:08;101331.59;;;20.48;53.44
35910;BME280;22004;49.120;-0.200;2023-07-02T12:21:34;101338.28;;;21.29;54.53
35910;BME280;22004;49.120;-0.200;2023-07-02T12:23:59;101343.84;;;20.99;53.68
35910;BME280;22004;49.120;-0.200;2023-07-02T12:26:24;101335.47;;;20.70;55.32
35910;BME280;22004;49.120;-0.200;2023-07-02T12:28:50;101354.38;;;22.01;54.59
35910;BME280;22004;49.120;-0.200;2023-07-02T12:31:15;101352.50;;;21.89;52.31
35910;BME280;22004;49.120;-0.200;2023-07-02T12:33:40;101348.53;;;22.49;51.19
35910;BME280;22004;49.120;-0.200;2023-07-02T12:36:06;101345.34;;;22.12;50.78
35910;BME280;22004;49.120;-0.200;2023-07-02T12:38:31;101338.56;;;21.39;53.18
35910;BME280;22004;49.120;-0.200;2023-07-02T12:40:56;101349.56;;;21.79;51.50